Time;durP1;ratioP1;P1;durP2;ratioP2;P2;SDS_P1;SDS_P2;PMS_P1;PMS_P2;Temp;Humidity;BMP_temperature;BMP_pressure;BME280_temperature;BME280_humidity;BME280_pressure;Samples;Min_cycle;Max_cycle;Signal;HPM_P1;HPM_P2
2022/08/28 00:00:58;;;;;;;79.10;56.55;;;;;;;21.82;42.60;100300.63;5093755;28;20044;-79
2022/08/28 00:03:25;;;;;;;82.35;55.17;;;;;;;21.83;43.05;100296.16;5093971;28;20519;-78
2022/08/28 00:05:52;;;;;;;77.50;53.10;;;;;;;21.75;43.03;100293.81;5095938;28;20052;-79
2022/08/28 00:08:20;;;;;;;72.32;50.22;;;;;;;21.77;43.26;100305.25;5094455;28;20569;-79
2022/08/28 00:10:47;;;;;;;79.93;52.13;;;;;;;21.39;43.37;100237.47;5093594;28;20052;-79
2022/08/28 00:13:17;;;;;;;76.63;48.03;;;;;;;21.71;43.27;100289.50;5093431;28;20105;-79
2022/08/28 00:15:47;;;;;;;70.45;49.35;;;;;;;21.67;43.49;100280.78;5093525;28;20102;-79
2022/08/28 00:18:15;;;;;;;;;;;;;;;21.48;43.45;100282.34;5094276;28;20424;-79
2022/08/28 00:20:43;;;;;;;70.45;48.20;;;;;;;21.54;43.89;100275.97;5095726;28;19924;-81
2022/08/28 00:23:10;;;;;;;62.60;43.90;;;;;;;21.42;43.85;100254.22;5085866;28;20056;-79
2022/08/28 00:25:37;;;;;;;65.13;44.28;;;;;;;21.59;43.79;100271.34;5091554;28;20051;-80
2022/08/28 00:28:07;;;;;;;63.17;46.13;;;;;;;21.65;44.00;100285.28;5108285;28;20039;-78
2022/08/28 00:30:41;;;;;;;65.70;46.22;;;;;;;21.67;43.94;100282.56;5099875;28;20082;-79
2022/08/28 00:33:13;;;;;;;64.75;45.35;;;;;;;21.58;44.17;100278.44;5093535;28;20044;-79
2022/08/28 00:35:41;;;;;;;62.90;43.63;;;;;;;21.65;44.26;100289.72;5093312;28;20063;-78
2022/08/28 00:38:10;;;;;;;67.18;46.95;;;;;;;21.60;44.24;100281.06;5092890;28;20048;-78
2022/08/28 00:40:39;;;;;;;64.50;45.92;;;;;;;21.60;44.49;100292.56;5092878;28;20066;-78
2022/08/28 00:43:07;;;;;;;68.38;45.67;;;;;;;21.58;44.46;100285.56;5078727;28;20056;-79
2022/08/28 00:45:35;;;;;;;66.57;44.97;;;;;;;21.49;44.91;100292.06;5095559;28;20113;-79
2022/08/28 00:48:06;;;;;;;67.55;46.25;;;;;;;21.42;45.07;100287.88;5092739;28;20101;-79
2022/08/28 00:53:28;;;;;;;68.43;46.13;;;;;;;21.20;45.52;100266.47;5094437;28;20104;-79
2022/08/28 00:56:01;;;;;;;60.38;43.70;;;;;;;21.26;45.57;100285.72;5097015;28;20140;-78
2022/08/28 00:58:33;;;;;;;75.80;45.60;;;;;;;21.26;45.70;100284.84;5096740;28;20216;-78
2022/08/28 01:01:00;;;;;;;68.82;46.95;;;;;;;21.13;45.74;100259.63;5097026;28;20048;-78
2022/08/28 01:03:27;;;;;;;71.72;45.97;;;;;;;21.14;46.17;100267.53;5096747;28;20056;-78
2022/08/28 01:05:54;;;;;;;67.45;44.97;;;;;;;21.18;46.08;100277.13;5097237;28;20133;-78
2022/08/28 01:08:21;;;;;;;69.07;46.13;;;;;;;21.15;46.26;100269.28;5096476;28;20097;-78
2022/08/28 01:10:54;;;;;;;68.47;46.70;;;;;;;21.03;46.21;100243.13;5096788;28;20048;-79
2022/08/28 01:13:23;;;;;;;72.90;45.72;;;;;;;21.07;46.58;100253.59;5078804;28;20083;-79
2022/08/28 01:15:50;;;;;;;;;;;;;;;20.91;46.31;100259.44;5097483;28;20063;-79
2022/08/28 01:18:21;;;;;;;64.07;44.55;;;;;;;21.02;46.74;100258.19;5096936;28;19924;-79
2022/08/28 01:21:00;;;;;;;70.63;46.03;;;;;;;20.86;46.75;100218.03;5096454;28;20048;-79
2022/08/28 01:23:44;;;;;;;68.95;46.25;;;;;;;21.07;46.63;100256.25;5096463;28;20052;-77
2022/08/28 01:26:12;;;;;;;66.47;45.83;;;;;;;21.12;46.88;100260.53;5096356;28;20470;-78
2022/08/28 01:28:39;;;;;;;68.40;47.17;;;;;;;21.12;46.82;100261.41;5097085;28;20499;-79
2022/08/28 01:31:12;;;;;;;69.13;47.00;;;;;;;21.10;47.05;100249.97;5096389;28;20121;-79
2022/08/28 01:33:41;;;;;;;71.60;47.30;;;;;;;21.09;46.90;100252.69;5096140;28;20147;-76
2022/08/28 01:36:10;;;;;;;70.25;47.05;;;;;;;20.88;47.16;100215.28;5097378;28;20067;-80
2022/08/28 01:38:39;;;;;;;66.90;45.78;;;;;;;21.07;47.18;100247.41;5096025;28;20061;-79
2022/08/28 01:41:07;;;;;;;72.77;47.27;;;;;;;20.88;47.31;100236.53;5095949;28;20435;-79
2022/08/28 01:43:34;;;;;;;71.05;46.60;;;;;;;20.96;47.59;100249.56;5096086;28;20102;-78
2022/08/28 01:46:03;;;;;;;72.93;47.70;;;;;;;20.93;47.80;100250.53;5096124;28;20512;-77
2022/08/28 01:48:35;;;;;;;73.05;48.22;;;;;;;20.93;47.73;100245.25;5095958;28;20056;-78
2022/08/28 01:51:04;;;;;;;71.28;46.38;;;;;;;20.90;47.90;100244.47;5096240;28;20048;-78
2022/08/28 01:53:32;;;;;;;69.38;46.38;;;;;;;20.84;48.00;100245.50;5097046;28;20044;-78
2022/08/28 01:56:03;;;;;;;70.18;45.60;;;;;;;20.88;47.97;100257.78;5096903;28;20056;-77
2022/08/28 01:58:31;;;;;;;68.90;44.95;;;;;;;20.74;48.25;100225.53;5096042;28;20074;-78
2022/08/28 02:01:03;;;;;;;67.63;46.00;;;;;;;20.90;48.42;100263.03;5096141;28;20123;-78
2022/08/28 02:03:32;;;;;;;65.32;43.30;;;;;;;20.83;48.38;100247.31;5095094;28;20142;-78
2022/08/28 02:05:59;;;;;;;65.00;44.83;;;;;;;20.86;48.33;100256.97;5095770;28;20078;-78
2022/08/28 02:08:26;;;;;;;67.97;44.47;;;;;;;20.85;48.51;100257.88;5096244;28;20052;-79
2022/08/28 02:10:53;;;;;;;67.13;45.40;;;;;;;20.84;48.50;100248.16;5095809;28;20056;-77
2022/08/28 02:13:21;;;;;;;65.05;44.45;;;;;;;20.84;48.57;100254.38;5095667;28;20138;-78
2022/08/28 02:15:51;;;;;;;66.63;44.33;;;;;;;20.86;48.67;100249.00;5095401;28;20447;-78
2022/08/28 02:18:18;;;;;;;67.40;44.42;;;;;;;20.75;48.66;100238.72;5095752;28;20413;-79
2022/08/28 02:20:45;;;;;;;68.88;44.65;;;;;;;20.79;48.92;100250.13;5095127;28;20054;-78
2022/08/28 02:23:13;;;;;;;67.53;44.88;;;;;;;20.73;48.93;100242.34;5095356;28;20052;-79
2022/08/28 02:25:40;;;;;;;63.20;43.25;;;;;;;20.74;49.17;100249.41;5077460;28;20055;-79
2022/08/28 02:28:07;;;;;;;66.55;43.38;;;;;;;20.64;49.37;100233.75;5095318;28;20056;-78
2022/08/28 02:30:35;;;;;;;63.33;42.50;;;;;;;20.63;49.46;100229.38;5095121;28;20050;-79
2022/08/28 02:33:02;;;;;;;63.90;41.05;;;;;;;20.66;49.44;100244.34;5095094;28;20048;-79
2022/08/28 02:35:30;;;;;;;63.30;42.22;;;;;;;20.69;49.59;100254.84;5095009;28;20084;-78
2022/08/28 02:37:57;;;;;;;66.68;41.80;;;;;;;20.65;49.46;100243.47;5094905;28;20530;-80
2022/08/28 02:40:27;;;;;;;65.43;43.03;;;;;;;20.56;49.50;100222.50;5094944;28;20134;-78
2022/08/28 02:42:53;;;;;;;63.53;41.92;;;;;;;20.68;49.35;100249.59;5076782;28;20060;-80
2022/08/28 02:45:21;;;;;;;67.80;42.25;;;;;;;20.55;49.43;100219.91;5095241;28;20072;-79
2022/08/28 02:47:51;;;;;;;62.22;44.05;;;;;;;20.79;49.34;100255.44;5094626;28;20090;-80
2022/08/28 02:50:19;;;;;;;61.90;42.15;;;;;;;20.83;49.13;100252.63;5094762;28;20071;-78
2022/08/28 02:52:46;;;;;;;63.20;41.80;;;;;;;20.90;49.24;100253.28;5095085;28;20101;-79
2022/08/28 02:55:16;;;;;;;64.90;41.88;;;;;;;20.88;49.23;100244.50;5096031;28;20523;-80
2022/08/28 02:57:45;;;;;;;61.10;40.92;;;;;;;20.88;49.35;100249.81;5095147;28;20111;-79
2022/08/28 03:00:16;;;;;;;66.75;43.42;;;;;;;20.91;49.32;100248.84;5095323;28;20048;-80
2022/08/28 03:02:45;;;;;;;63.13;41.05;;;;;;;20.91;49.20;100240.88;5094514;28;20101;-79
2022/08/28 03:05:14;;;;;;;65.88;42.72;;;;;;;20.91;49.09;100241.75;5094611;28;20048;-79
2022/08/28 03:07:41;;;;;;;62.63;42.30;;;;;;;20.85;48.89;100210.97;5094545;28;20048;-79
2022/08/28 03:10:09;;;;;;;61.97;41.95;;;;;;;21.09;48.58;100231.44;5094469;28;20048;-79
2022/08/28 03:12:37;;;;;;;62.42;40.38;;;;;;;21.15;48.47;100239.19;5094344;28;20055;-80
2022/08/28 03:15:05;;;;;;;58.63;38.65;;;;;;;21.22;48.48;100240.72;5094169;28;20056;-80
2022/08/28 03:17:33;;;;;;;65.78;38.80;;;;;;;21.22;48.39;100215.00;5076064;28;20557;-79
2022/08/28 03:20:00;;;;;;;60.60;39.00;;;;;;;21.45;48.14;100255.91;5095195;28;20146;-79
2022/08/28 03:25:12;;;;;;;59.30;38.20;;;;;;;21.54;47.89;100241.41;5094479;28;20056;-78
2022/08/28 03:27:39;;;;;;;57.10;39.17;;;;;;;21.63;47.77;100236.59;5094034;28;20052;-79
2022/08/28 03:30:07;;;;;;;58.05;37.20;;;;;;;21.61;47.78;100246.44;5094122;28;20056;-80
2022/08/28 03:32:34;;;;;;;55.80;36.97;;;;;;;21.55;48.04;100245.78;5094099;28;20051;-80
2022/08/28 03:35:02;;;;;;;51.90;38.03;;;;;;;21.50;48.13;100245.97;5076143;28;20055;-78
2022/08/28 03:37:30;;;;;;;61.55;39.58;;;;;;;21.45;48.23;100238.16;5094615;28;20058;-78
2022/08/28 03:39:58;;;;;;;56.30;37.15;;;;;;;21.47;48.28;100235.44;5094967;28;20059;-78
2022/08/28 03:42:26;;;;;;;52.60;36.17;;;;;;;21.50;47.99;100239.78;5093870;28;20044;-79
2022/08/28 03:44:53;;;;;;;55.83;37.80;;;;;;;21.51;48.19;100237.06;5075651;28;20051;-78
2022/08/28 03:47:21;;;;;;;55.33;38.13;;;;;;;21.50;48.15;100229.16;5093808;28;20052;-77
2022/08/28 03:49:54;;;;;;;57.03;37.47;;;;;;;21.57;48.10;100239.47;5093893;28;20059;-80
2022/08/28 03:52:22;;;;;;;60.63;39.63;;;;;;;21.60;48.04;100242.06;5076275;28;20056;-77
2022/08/28 03:54:50;;;;;;;54.25;37.38;;;;;;;21.62;47.96;100234.91;5075476;28;20044;-78
2022/08/28 03:57:19;;;;;;;55.30;36.95;;;;;;;21.61;47.80;100229.63;5093274;28;20450;-78
2022/08/28 03:59:48;;;;;;;53.33;37.25;;;;;;;21.57;47.79;100228.00;5094094;28;20549;-79
2022/08/28 04:02:18;;;;;;;55.70;35.75;;;;;;;21.43;48.12;100199.28;5094051;28;20094;-80
2022/08/28 04:04:47;;;;;;;54.92;36.38;;;;;;;21.55;48.24;100240.47;5093813;28;20146;-78
2022/08/28 04:07:17;;;;;;;55.42;36.22;;;;;;;21.63;48.15;100238.41;5093629;28;20048;-79
2022/08/28 04:09:45;;;;;;;53.10;36.55;;;;;;;21.60;48.19;100230.56;5093498;28;20060;-77
2022/08/28 04:12:12;;;;;;;54.15;37.35;;;;;;;21.65;48.34;100226.78;5094231;28;20090;-77
2022/08/28 04:14:39;;;;;;;57.85;37.60;;;;;;;21.64;48.11;100238.38;5093651;28;20060;-79
2022/08/28 04:17:06;;;;;;;58.72;40.15;;;;;;;21.74;47.88;100236.22;5093477;28;20089;-79
2022/08/28 04:19:33;;;;;;;62.55;39.60;;;;;;;21.86;47.56;100242.88;5075070;28;20075;-80
2022/08/28 04:22:00;;;;;;;55.97;37.60;;;;;;;21.94;47.47;100232.84;5075471;28;20052;-78
2022/08/28 04:24:28;;;;;;;55.00;38.15;;;;;;;22.04;47.13;100243.97;5093117;28;20430;-79
2022/08/28 04:26:54;;;;;;;54.20;38.83;;;;;;;22.13;47.17;100243.63;5093246;28;20508;-80
2022/08/28 04:29:22;;;;;;;56.00;38.20;;;;;;;22.32;46.82;100243.81;5093008;28;20063;-78
2022/08/28 04:31:49;;;;;;;56.42;37.80;;;;;;;22.52;46.12;100227.06;5093269;28;20052;-79
2022/08/28 04:34:16;;;;;;;58.25;39.28;;;;;;;22.55;46.15;100236.72;5095080;28;20048;-78
2022/08/28 04:36:45;;;;;;;55.70;38.83;;;;;;;22.64;45.81;100228.38;5094241;28;20052;-79
2022/08/28 04:39:12;;;;;;;54.38;38.63;;;;;;;22.84;45.51;100225.75;5092140;28;20081;-79
2022/08/28 04:41:39;;;;;;;60.17;40.53;;;;;;;23.04;44.90;100219.63;5095925;28;20141;-84
2022/08/28 04:44:07;;;;;;;60.35;40.00;;;;;;;23.30;44.30;100225.63;5109211;28;20056;-84
2022/08/28 04:46:35;;;;;;;53.28;37.97;;;;;;;23.28;44.37;100198.19;5066569;28;20056;-80
2022/08/28 04:49:04;;;;;;;52.17;38.53;;;;;;;23.70;43.84;100232.72;5077522;28;20143;-82
2022/08/28 04:51:32;;;;;;;57.67;40.42;;;;;;;23.89;43.28;100215.91;5097416;28;20048;-82
2022/08/28 04:54:02;;;;;;;64.03;41.85;;;;;;;24.16;42.55;100226.25;5094991;28;20052;-79
2022/08/28 04:56:29;;;;;;;55.92;38.30;;;;;;;24.48;41.95;100222.03;5088981;28;20056;-80
2022/08/28 04:58:56;;;;;;;59.90;41.35;;;;;;;24.86;41.28;100222.81;5073158;28;20409;-78
2022/08/28 05:01:23;;;;;;;57.45;40.03;;;;;;;25.16;40.45;100202.63;5093008;28;20097;-79
2022/08/28 05:03:58;;;;;;;58.13;41.05;;;;;;;25.18;40.59;100209.63;5093653;28;20081;-78
2022/08/28 05:06:27;;;;;;;62.35;42.00;;;;;;;25.09;40.99;100210.09;5094589;28;20040;-80
2022/08/28 05:08:58;;;;;;;;;;;;;;;25.02;41.65;100209.56;5076609;28;20051;-80
2022/08/28 05:11:27;;;;;;;62.30;41.17;;;;;;;25.21;41.18;100205.97;5101650;28;19923;-80
2022/08/28 05:14:03;;;;;;;54.75;39.83;;;;;;;25.32;40.65;100201.78;5104660;28;20052;-79
2022/08/28 05:16:31;;;;;;;57.60;41.42;;;;;;;25.26;40.84;100198.59;5103262;28;20147;-78
2022/08/28 05:19:00;;;;;;;56.30;40.08;;;;;;;25.34;40.43;100194.56;5097177;28;20080;-78
2022/08/28 05:21:27;;;;;;;60.50;42.42;;;;;;;25.22;40.12;100157.78;5093195;28;20075;-77
2022/08/28 05:23:56;;;;;;;55.88;40.47;;;;;;;25.35;40.79;100190.06;5074232;28;20056;-77
2022/08/28 05:26:24;;;;;;;54.38;39.78;;;;;;;25.11;40.83;100187.69;5092367;28;20113;-79
2022/08/28 05:28:55;;;;;;;56.65;40.17;;;;;;;24.93;41.21;100167.28;5092173;28;20059;-78
2022/08/28 05:31:23;;;;;;;62.63;41.38;;;;;;;24.70;41.56;100171.13;5074512;28;20105;-76
2022/08/28 05:33:51;;;;;;;54.70;38.38;;;;;;;24.60;42.11;100173.38;5092494;28;20044;-77
2022/08/28 05:36:21;;;;;;;53.08;38.53;;;;;;;24.45;42.78;100161.59;5092555;28;20056;-77
2022/08/28 05:38:50;;;;;;;54.97;39.70;;;;;;;24.45;42.79;100180.28;5092835;28;20051;-78
2022/08/28 05:41:23;;;;;;;55.58;38.80;;;;;;;24.61;42.46;100208.94;5096455;28;20052;-76
2022/08/28 05:43:50;;;;;;;55.53;38.40;;;;;;;24.85;41.60;100177.50;5095893;28;20060;-77
2022/08/28 05:46:17;;;;;;;54.95;38.55;;;;;;;24.78;41.84;100155.56;5095897;28;20086;-77
2022/08/28 05:48:44;;;;;;;52.80;38.35;;;;;;;25.03;41.37;100194.38;5095944;28;20055;-76
2022/08/28 05:51:17;;;;;;;52.72;38.55;;;;;;;25.54;40.56;100185.47;5094215;28;20054;-76
2022/08/28 05:53:48;;;;;;;51.70;38.05;;;;;;;25.83;39.87;100152.72;5093440;28;20074;-78
2022/08/28 05:56:28;;;;;;;53.63;37.25;;;;;;;26.25;39.32;100184.28;5096087;28;20063;-77
2022/08/28 05:58:59;;;;;;;55.65;37.65;;;;;;;26.38;38.74;100170.22;5095614;28;20056;-77
2022/08/28 06:01:29;;;;;;;51.83;35.90;;;;;;;26.48;38.43;100169.59;5095866;28;20105;-76
2022/08/28 06:04:00;;;;;;;;;;;;;;;26.10;39.27;100169.94;5078399;28;20059;-77
2022/08/28 06:06:30;;;;;;;48.78;36.40;;;;;;;25.94;39.32;100175.31;5095946;28;20387;-78
2022/08/28 06:09:18;;;;;;;50.05;35.95;;;;;;;26.14;38.96;100187.56;5095525;28;20048;-78
2022/08/28 06:11:46;;;;;;;51.42;36.85;;;;;;;26.33;38.30;100186.53;5095291;28;20052;-78
2022/08/28 06:14:16;;;;;;;53.35;35.75;;;;;;;26.39;38.09;100186.16;5095581;28;20058;-78
2022/08/28 06:16:49;;;;;;;49.70;34.95;;;;;;;26.16;38.39;100168.75;5095370;28;20055;-76
2022/08/28 06:19:17;;;;;;;53.88;35.05;;;;;;;26.37;38.44;100172.00;5095192;28;20510;-77
2022/08/28 06:21:46;;;;;;;51.15;35.15;;;;;;;26.61;37.89;100175.13;5095819;28;20060;-78
2022/08/28 06:24:13;;;;;;;49.38;36.17;;;;;;;26.66;37.94;100158.78;5095558;28;20051;-78
2022/08/28 06:26:41;;;;;;;50.70;36.33;;;;;;;27.16;37.16;100136.09;5095136;28;20110;-80
2022/08/28 06:29:10;;;;;;;48.55;33.67;;;;;;;27.43;36.89;100164.91;5095236;28;20151;-81
2022/08/28 06:31:38;;;;;;;48.70;34.63;;;;;;;27.37;36.78;100161.63;5095598;28;20047;-79
2022/08/28 06:34:06;;;;;;;49.03;32.55;;;;;;;27.46;36.31;100170.06;5095487;28;20048;-79
2022/08/28 06:36:37;;;;;;;49.30;34.30;;;;;;;27.67;36.19;100163.38;5104083;28;20051;-77
2022/08/28 06:39:08;;;;;;;48.33;34.65;;;;;;;27.75;35.93;100161.06;5099429;28;20048;-81
2022/08/28 06:41:39;;;;;;;49.80;33.60;;;;;;;27.55;36.40;100156.97;5095656;28;20052;-79
2022/08/28 06:44:07;;;;;;;46.58;32.08;;;;;;;27.63;36.43;100155.59;5095491;28;20055;-79
2022/08/28 06:46:34;;;;;;;46.20;32.80;;;;;;;27.24;36.80;100144.59;5096680;28;20044;-80
2022/08/28 06:49:06;;;;;;;43.92;33.08;;;;;;;26.81;37.87;100144.47;5096439;28;20051;-79
2022/08/28 06:51:34;;;;;;;45.88;31.75;;;;;;;26.24;38.67;100149.56;5094071;28;20516;-80
2022/08/28 06:54:01;;;;;;;49.53;31.85;;;;;;;26.06;39.29;100164.88;5095857;28;20098;-77
2022/08/28 06:56:28;;;;;;;45.17;31.27;;;;;;;25.85;39.73;100146.34;5079554;28;20503;-82
2022/08/28 06:58:57;;;;;;;44.35;31.55;;;;;;;26.21;39.37;100152.44;5066898;28;20120;-81
2022/08/28 07:01:31;;;;;;;49.38;31.92;;;;;;;26.39;38.67;100143.31;5081974;28;20478;-82
2022/08/28 07:04:02;;;;;;;49.63;33.03;;;;;;;26.69;38.51;100140.69;5095208;28;20462;-81
2022/08/28 07:06:33;;;;;;;47.08;33.85;;;;;;;27.20;37.77;100156.41;5094698;28;20048;-78
2022/08/28 07:09:01;;;;;;;47.20;33.35;;;;;;;27.65;36.75;100148.31;5094939;28;20109;-79
2022/08/28 07:11:30;;;;;;;44.90;31.55;;;;;;;27.85;36.51;100155.09;5094531;28;20389;-80
2022/08/28 07:13:58;;;;;;;45.28;32.70;;;;;;;27.83;36.28;100157.88;5076049;28;20082;-79
2022/08/28 07:16:31;;;;;;;46.10;32.97;;;;;;;27.64;36.64;100143.91;5094473;28;20563;-79
2022/08/28 07:18:58;;;;;;;48.08;35.33;;;;;;;27.52;37.03;100167.00;5093901;28;20401;-80
2022/08/28 07:21:26;;;;;;;47.40;33.13;;;;;;;27.13;37.63;100161.28;5094489;28;20048;-79
2022/08/28 07:23:54;;;;;;;49.20;35.08;;;;;;;26.87;37.89;100162.88;5077485;28;20142;-80
2022/08/28 07:26:22;;;;;;;44.80;32.08;;;;;;;26.77;37.83;100153.66;5094811;28;20056;-79
2022/08/28 07:28:53;;;;;;;46.78;32.30;;;;;;;26.82;37.92;100138.13;5094690;28;20048;-81
2022/08/28 07:31:43;;;;;;;45.63;32.13;;;;;;;27.07;37.44;100150.94;5095502;28;20051;-81
2022/08/28 07:34:12;;;;;;;45.40;30.23;;;;;;;27.02;37.33;100149.47;5094688;28;20498;-81
2022/08/28 07:36:40;;;;;;;44.50;30.98;;;;;;;26.70;38.27;100155.81;5094244;28;20542;-80
2022/08/28 07:39:09;;;;;;;44.03;30.25;;;;;;;26.44;38.60;100127.00;5093848;28;20454;-84
2022/08/28 07:41:39;;;;;;;44.83;30.83;;;;;;;26.44;38.66;100149.28;5094263;28;20055;-79
2022/08/28 07:47:01;;;;;;;43.58;30.20;;;;;;;26.98;38.07;100154.19;5093578;28;20069;-78
2022/08/28 07:49:30;;;;;;;41.92;29.50;;;;;;;27.51;36.90;100149.19;5094632;28;20070;-80
2022/08/28 07:51:57;;;;;;;42.55;29.27;;;;;;;27.91;35.95;100149.38;5094074;28;20055;-79
2022/08/28 07:54:24;;;;;;;44.40;29.35;;;;;;;27.96;35.50;100150.81;5075706;28;20052;-78
2022/08/28 07:56:51;;;;;;;42.55;30.33;;;;;;;28.29;35.39;100137.97;5094485;28;20080;-79
2022/08/28 07:59:19;;;;;;;41.80;28.52;;;;;;;28.85;34.38;100143.22;5094420;28;20113;-79
2022/08/28 08:01:49;;;;;;;40.08;29.60;;;;;;;29.05;33.57;100141.84;5093316;28;20055;-77
2022/08/28 08:04:19;;;;;;;44.20;28.92;;;;;;;29.13;33.41;100109.94;5093486;28;20059;-79
2022/08/28 08:06:46;;;;;;;;;;;;;;;29.18;34.19;100142.72;5094020;28;20093;-77
2022/08/28 08:09:15;;;;;;;41.08;27.38;;;;;;;29.12;33.32;100105.50;5075051;28;19923;-78
2022/08/28 08:11:43;;;;;;;41.17;27.95;;;;;;;29.37;33.10;100129.69;5093088;28;20427;-77
2022/08/28 08:14:11;;;;;;;40.58;25.50;;;;;;;29.67;32.67;100136.56;5075440;28;20058;-77
2022/08/28 08:16:42;;;;;;;39.33;27.05;;;;;;;29.51;32.56;100117.97;5093243;28;20098;-78
2022/08/28 08:19:14;;;;;;;34.40;24.70;;;;;;;29.47;32.12;100129.94;5092961;28;20064;-79
2022/08/28 08:21:43;;;;;;;33.40;22.55;;;;;;;29.45;31.79;100126.47;5093378;28;20522;-78
2022/08/28 08:24:19;;;;;;;33.00;22.88;;;;;;;29.40;31.84;100109.78;5093100;28;20075;-80
2022/08/28 08:26:48;;;;;;;31.30;23.30;;;;;;;29.64;31.34;100109.00;5093209;28;20058;-79
2022/08/28 08:29:37;;;;;;;30.33;23.02;;;;;;;29.73;31.37;100122.69;5092747;28;20059;-78
2022/08/28 08:32:09;;;;;;;32.35;22.10;;;;;;;29.76;31.13;100113.53;5092782;28;20062;-78
2022/08/28 08:34:42;;;;;;;34.58;22.02;;;;;;;29.77;30.67;100117.94;5093092;28;20087;-78
2022/08/28 08:37:12;;;;;;;31.65;22.38;;;;;;;29.70;31.31;100127.44;5093771;28;20062;-78
2022/08/28 08:39:41;;;;;;;35.88;22.90;;;;;;;29.66;31.53;100113.28;5092942;28;20044;-77
2022/08/28 08:42:30;;;;;;;29.15;19.10;;;;;;;29.59;30.51;100115.56;5074989;28;20048;-79
2022/08/28 08:44:59;;;;;;;27.88;19.70;;;;;;;29.52;29.87;100111.59;5092665;28;20044;-78
2022/08/28 08:47:39;;;;;;;30.25;20.60;;;;;;;29.41;30.56;100114.22;5092719;28;20074;-78
2022/08/28 08:50:15;;;;;;;34.95;21.25;;;;;;;29.50;30.88;100120.75;5092576;28;20466;-76
2022/08/28 08:53:01;;;;;;;28.23;19.77;;;;;;;29.36;30.22;100108.28;5092816;28;20052;-79
2022/08/28 08:55:34;;;;;;;28.05;19.60;;;;;;;29.54;29.83;100116.88;5091537;28;20052;-79
2022/08/28 08:58:10;;;;;;;28.80;19.25;;;;;;;29.77;29.91;100096.38;5092346;28;20097;-77
2022/08/28 09:01:15;;;;;;;28.13;19.20;;;;;;;30.00;29.05;100098.25;5092763;28;20143;-78
2022/08/28 09:03:53;;;;;;;30.80;20.50;;;;;;;29.93;29.00;100097.00;5074247;28;20060;-79
2022/08/28 09:06:35;;;;;;;27.25;18.65;;;;;;;29.88;28.72;100098.28;5094932;28;20114;-79
2022/08/28 09:09:06;;;;;;;29.17;19.75;;;;;;;29.79;28.49;100073.78;5093420;28;20052;-81
2022/08/28 09:11:42;;;;;;;27.98;18.80;;;;;;;30.01;28.07;100075.75;5092754;28;20052;-81
2022/08/28 09:14:15;;;;;;;29.48;20.08;;;;;;;30.32;28.05;100086.09;5094299;28;20392;-78
2022/08/28 09:16:46;;;;;;;23.13;14.95;;;;;;;30.44;25.88;100079.78;5096748;28;20062;-81
2022/08/28 09:19:17;;;;;;;26.58;15.20;;;;;;;30.53;25.87;100075.53;5078383;28;20048;-77
2022/08/28 09:21:46;;;;;;;25.25;15.82;;;;;;;30.56;25.15;100077.97;5096875;28;20052;-79
2022/08/28 09:24:27;;;;;;;22.60;14.82;;;;;;;30.53;25.76;100070.97;5079029;28;20048;-80
2022/08/28 09:27:02;;;;;;;26.13;16.33;;;;;;;30.65;25.43;100071.84;5097015;28;20068;-80
2022/08/28 09:29:35;;;;;;;24.35;16.02;;;;;;;30.60;25.07;100069.53;5096548;28;20055;-79
2022/08/28 09:32:15;;;;;;;23.90;15.55;;;;;;;30.72;25.30;100067.72;5096048;28;20458;-78
2022/08/28 09:35:00;;;;;;;25.27;15.13;;;;;;;30.86;24.79;100073.88;5096706;28;20079;-78
2022/08/28 09:37:31;;;;;;;25.20;15.25;;;;;;;30.82;24.61;100084.91;5096454;28;20420;-79
2022/08/28 09:40:19;;;;;;;24.63;15.55;;;;;;;30.90;24.48;100061.91;5075875;28;20105;-79
2022/08/28 09:45:51;;;;;;;24.40;15.50;;;;;;;30.82;23.73;100048.97;5095443;28;20055;-79
2022/08/28 09:48:24;;;;;;;27.75;15.32;;;;;;;30.83;22.41;100050.72;5096102;28;20094;-78
2022/08/28 09:51:11;;;;;;;20.40;13.63;;;;;;;30.39;22.12;99975.03;5096646;28;20116;-76
2022/08/28 09:53:59;;;;;;;23.30;12.75;;;;;;;30.89;21.90;100035.91;5096407;28;20128;-76
2022/08/28 09:56:39;;;;;;;20.05;11.20;;;;;;;30.90;20.75;100005.28;5029285;28;20121;-78
2022/08/28 09:59:09;;;;;;;17.48;11.75;;;;;;;31.29;20.39;100044.38;5099138;28;20067;-78
2022/08/28 10:01:45;;;;;;;22.13;12.63;;;;;;;31.51;20.89;100031.88;5103496;28;20566;-77
2022/08/28 10:04:36;;;;;;;20.40;12.25;;;;;;;31.59;21.14;100034.81;5086427;28;20056;-78
2022/08/28 10:07:25;;;;;;;22.42;12.20;;;;;;;31.94;20.09;100031.88;5098800;28;20090;-77
2022/08/28 10:09:56;;;;;;;15.57;9.63;;;;;;;32.08;18.92;100041.59;5095842;28;20423;-76
2022/08/28 10:12:34;;;;;;;17.17;10.00;;;;;;;32.03;18.30;100031.16;5095323;28;20048;-78
2022/08/28 10:15:10;;;;;;;17.80;10.80;;;;;;;32.33;18.16;100028.69;5095304;28;20071;-77
2022/08/28 10:18:05;;;;;;;18.58;10.70;;;;;;;32.50;17.90;100035.34;5078017;28;20048;-77
2022/08/28 10:21:02;;;;;;;22.35;11.30;;;;;;;32.47;18.15;100024.81;5095852;28;20074;-78
2022/08/28 10:23:53;;;;;;;20.13;11.20;;;;;;;32.63;17.82;100034.22;5070012;28;20044;-79
2022/08/28 10:26:27;;;;;;;18.90;11.05;;;;;;;32.73;17.61;100031.56;5094899;28;20074;-78
2022/08/28 10:29:22;;;;;;;18.65;12.25;;;;;;;32.78;17.91;100025.75;5095427;28;20051;-77
2022/08/28 10:31:57;;;;;;;21.10;13.55;;;;;;;32.68;17.82;100028.41;5094947;28;20056;-80
2022/08/28 10:34:45;;;;;;;21.77;13.20;;;;;;;32.62;18.03;100024.38;5095279;28;20083;-79
2022/08/28 10:37:12;;;;;;;23.58;14.00;;;;;;;32.58;18.01;100012.09;5094323;28;20063;-80
2022/08/28 10:39:56;;;;;;;21.52;12.63;;;;;;;32.66;18.16;100024.13;5093539;28;20454;-78
2022/08/28 10:42:34;;;;;;;18.63;12.30;;;;;;;32.79;17.89;100027.47;5094629;28;20063;-80
2022/08/28 10:45:12;;;;;;;22.30;12.20;;;;;;;32.85;17.72;100019.69;5094977;28;20056;-78
2022/08/28 10:47:51;;;;;;;19.65;11.57;;;;;;;32.87;17.11;100026.78;5094691;28;20048;-79
2022/08/28 10:50:25;;;;;;;16.13;10.40;;;;;;;32.72;16.88;100021.75;5093811;28;20054;-79
2022/08/28 10:52:56;;;;;;;15.07;7.88;;;;;;;32.75;16.21;100016.06;5094387;28;20056;-80
2022/08/28 10:55:23;;;;;;;15.23;8.48;;;;;;;32.83;16.20;100016.25;5094383;28;20147;-79
2022/08/28 10:57:59;;;;;;;14.25;7.05;;;;;;;32.82;15.76;100017.22;5094345;28;20142;-79
2022/08/28 11:00:27;;;;;;;16.80;7.20;;;;;;;32.77;15.74;100014.06;5087978;28;20044;-77
2022/08/28 11:02:58;;;;;;;16.93;7.83;;;;;;;32.74;15.76;100025.16;5092204;28;20048;-78
2022/08/28 11:05:31;;;;;;;11.68;6.55;;;;;;;32.69;15.70;100023.84;5094274;28;20067;-76
2022/08/28 11:08:04;;;;;;;17.65;8.05;;;;;;;32.64;16.07;100017.00;5094411;28;20048;-77
2022/08/28 11:10:30;;;;;;;17.27;7.40;;;;;;;32.45;16.11;100016.84;5094329;28;20056;-76
2022/08/28 11:12:58;;;;;;;15.32;7.50;;;;;;;32.31;16.37;100015.31;5094261;28;20491;-77
2022/08/28 11:15:25;;;;;;;10.70;6.82;;;;;;;32.22;16.31;100016.97;5094144;28;20055;-78
2022/08/28 11:18:17;;;;;;;16.15;7.45;;;;;;;32.08;16.42;100019.97;5094193;28;20055;-78
2022/08/28 11:21:16;;;;;;;12.57;7.65;;;;;;;32.00;16.54;100004.41;5094062;28;20058;-75
2022/08/28 11:23:51;;;;;;;18.65;7.43;;;;;;;31.97;16.71;100011.88;5094115;28;20055;-76
2022/08/28 11:27:04;;;;;;;15.05;7.40;;;;;;;31.91;17.21;99997.03;5093873;28;20518;-77
2022/08/28 11:30:10;;;;;;;13.88;7.65;;;;;;;31.92;16.97;100000.59;5074497;28;20051;-76
2022/08/28 11:32:55;;;;;;;17.30;7.75;;;;;;;31.94;17.12;100004.03;5093589;28;20416;-78
2022/08/28 11:35:28;;;;;;;16.08;7.82;;;;;;;31.93;17.35;100005.03;5093557;28;20051;-79
2022/08/28 11:37:57;;;;;;;16.65;7.55;;;;;;;31.91;17.50;100009.69;5092719;28;20512;-77
2022/08/28 11:40:30;;;;;;;;;;;;;;;31.58;17.92;100006.13;5093805;28;20101;-77
2022/08/28 11:43:15;;;;;;;18.88;10.02;;;;;;;31.70;18.01;100004.22;5093510;28;19970;-78